Pagrindinis puslapis
METAR-TAF:

METAR-TAF

Oro uostai :

Varna, Bulgarija

platuma: 43-12N, ilguma: 027-55E, Aukštis: 41 m

Dabartinis oras

Ataskaita buvo paskelbta 11 minutes, ne 05:00 UTC
Vėjas 11 kt iš Šiaurės/Šiaurės Rytų
Temperatūra 8°C
Drėgmė 49%
Slėgis 1032 hPa
Matomumas 10 km arba daugiau
nėra debesų žemiau 1500 m ir nėra kamuolinių lietaus debesų

METAR: LBWN 070500Z 03011KT CAVOK 08/M02 Q1032 NOSIG

Laikas: 08:11 (05:11 UTC)

Prognozė

Ataskaita buvo paskelbta 6 valandos ir 11 minutes, ne 23:00 UTC
Prognozė galioja nuo 07 metu 00 UTC su 07 metu 24 UTC
Vėjas 14 kt iš Šiaurės Rytų
Matomumas 10 km arba daugiau
nėra debesų žemiau 1500 m ir nėra kamuolinių lietaus debesų
Laikinai
nuo 07 metu 09 UTC su 07 metu 15 UTC
Vėjas 18 kt iš Rytų su gūsio iki 28 kt

TAF: LBWN 062300Z 0700/0724 05014KT CAVOK TEMPO 0709/0715 08018G28KT

Orai ataskaitas ir orų prognozės (METAR, TAF).

turimą stotys yra geltonos ir raudonos taškus žemėlapyje.

Perkelti pele per norėdami pamatyti stoties vardą.

Tada spustelėkite, norėdami matyti oro stebėjimo ir prognozės.

Norėdami pakeisti žemėlapį: spustelėkite ant žalios mygtukų su juodo kryžiaus žemyn,; žalią mygtuką su brūkšneliu, jei norite nutolinti; arba žalių rodyklių gretimoms žemėlapius.


METAR-TAF: